sensor_id;sensor_type;location;lat;lon;timestamp;pressure;altitude;pressure_sealevel;temperature;humidity
36748;BME280;22716;51.556;5.080;2023-12-14T00:00:55;100175.81;;;7.81;100.00
36748;BME280;22716;51.556;5.080;2023-12-14T00:03:24;100181.03;;;7.81;100.00
36748;BME280;22716;51.556;5.080;2023-12-14T00:05:55;100190.69;;;7.74;100.00
36748;BME280;22716;51.556;5.080;2023-12-14T00:08:23;100194.19;;;7.72;100.00
36748;BME280;22716;51.556;5.080;2023-12-14T00:10:52;100217.69;;;7.67;100.00
36748;BME280;22716;51.556;5.080;2023-12-14T00:13:21;100201.25;;;7.58;100.00
36748;BME280;22716;51.556;5.080;2023-12-14T00:15:49;100217.72;;;7.63;100.00
36748;BME280;22716;51.556;5.080;2023-12-14T00:18:18;100225.56;;;7.58;100.00
36748;BME280;22716;51.556;5.080;2023-12-14T00:20:46;100237.00;;;7.42;100.00
36748;BME280;22716;51.556;5.080;2023-12-14T00:23:17;100234.44;;;7.39;100.00
36748;BME280;22716;51.556;5.080;2023-12-14T00:25:46;100241.38;;;7.37;100.00
36748;BME280;22716;51.556;5.080;2023-12-14T00:28:15;100251.00;;;7.30;100.00
36748;BME280;22716;51.556;5.080;2023-12-14T00:30:44;100253.63;;;7.27;100.00
36748;BME280;22716;51.556;5.080;2023-12-14T00:33:12;100259.72;;;7.20;100.00
36748;BME280;22716;51.556;5.080;2023-12-14T00:35:41;100271.00;;;7.19;100.00
36748;BME280;22716;51.556;5.080;2023-12-14T00:38:09;100264.97;;;7.16;100.00
36748;BME280;22716;51.556;5.080;2023-12-14T00:40:40;100271.97;;;7.09;100.00
36748;BME280;22716;51.556;5.080;2023-12-14T00:43:09;100276.31;;;7.07;100.00
36748;BME280;22716;51.556;5.080;2023-12-14T00:45:37;100267.66;;;6.96;100.00
36748;BME280;22716;51.556;5.080;2023-12-14T00:48:07;100278.09;;;6.98;100.00
36748;BME280;22716;51.556;5.080;2023-12-14T00:50:35;100273.78;;;6.95;100.00
36748;BME280;22716;51.556;5.080;2023-12-14T00:53:04;100280.69;;;6.96;100.00
36748;BME280;22716;51.556;5.080;2023-12-14T00:55:32;100292.88;;;6.91;100.00
36748;BME280;22716;51.556;5.080;2023-12-14T00:58:03;100295.53;;;6.81;100.00
36748;BME280;22716;51.556;5.080;2023-12-14T01:00:32;100307.69;;;6.75;100.00
36748;BME280;22716;51.556;5.080;2023-12-14T01:03:00;100307.69;;;6.74;100.00
36748;BME280;22716;51.556;5.080;2023-12-14T01:05:29;100320.72;;;6.72;100.00
36748;BME280;22716;51.556;5.080;2023-12-14T01:07:57;100316.41;;;6.64;100.00
36748;BME280;22716;51.556;5.080;2023-12-14T01:10:26;100331.13;;;6.66;100.00
36748;BME280;22716;51.556;5.080;2023-12-14T01:12:54;100323.34;;;6.63;100.00
36748;BME280;22716;51.556;5.080;2023-12-14T01:15:26;100321.63;;;6.61;100.00
36748;BME280;22716;51.556;5.080;2023-12-14T01:17:54;100332.91;;;6.63;100.00
36748;BME280;22716;51.556;5.080;2023-12-14T01:20:23;100336.34;;;6.68;100.00
36748;BME280;22716;51.556;5.080;2023-12-14T01:22:51;100332.91;;;6.63;100.00
36748;BME280;22716;51.556;5.080;2023-12-14T01:25:20;100337.25;;;6.65;100.00
36748;BME280;22716;51.556;5.080;2023-12-14T01:27:49;100350.25;;;6.59;100.00
36748;BME280;22716;51.556;5.080;2023-12-14T01:30:17;100348.53;;;6.57;100.00
36748;BME280;22716;51.556;5.080;2023-12-14T01:32:48;100352.88;;;6.53;100.00
36748;BME280;22716;51.556;5.080;2023-12-14T01:35:17;100363.28;;;6.56;100.00
36748;BME280;22716;51.556;5.080;2023-12-14T01:37:45;100358.09;;;6.50;100.00
36748;BME280;22716;51.556;5.080;2023-12-14T01:40:18;100378.88;;;6.58;100.00
36748;BME280;22716;51.556;5.080;2023-12-14T01:42:47;100385.84;;;6.51;100.00
36748;BME280;22716;51.556;5.080;2023-12-14T01:45:15;100388.47;;;6.48;100.00
36748;BME280;22716;51.556;5.080;2023-12-14T01:47:44;100399.72;;;6.52;100.00
36748;BME280;22716;51.556;5.080;2023-12-14T01:50:15;100406.69;;;6.54;100.00
36748;BME280;22716;51.556;5.080;2023-12-14T01:52:43;100414.47;;;6.59;100.00
36748;BME280;22716;51.556;5.080;2023-12-14T01:55:12;100419.69;;;6.56;100.00
36748;BME280;22716;51.556;5.080;2023-12-14T01:57:41;100417.94;;;6.55;100.00
36748;BME280;22716;51.556;5.080;2023-12-14T02:00:19;100426.63;;;6.55;100.00
36748;BME280;22716;51.556;5.080;2023-12-14T02:02:49;100427.47;;;6.59;100.00
36748;BME280;22716;51.556;5.080;2023-12-14T02:05:21;100426.63;;;6.55;100.00
36748;BME280;22716;51.556;5.080;2023-12-14T02:07:50;100433.53;;;6.52;100.00
36748;BME280;22716;51.556;5.080;2023-12-14T02:10:18;100434.41;;;6.52;100.00
36748;BME280;22716;51.556;5.080;2023-12-14T02:12:46;100443.97;;;6.55;100.00
36748;BME280;22716;51.556;5.080;2023-12-14T02:15:15;100451.75;;;6.49;100.00
36748;BME280;22716;51.556;5.080;2023-12-14T02:17:44;100452.63;;;6.49;100.00
36748;BME280;22716;51.556;5.080;2023-12-14T02:20:12;100452.66;;;6.48;100.00
36748;BME280;22716;51.556;5.080;2023-12-14T02:22:53;100444.84;;;6.42;100.00
36748;BME280;22716;51.556;5.080;2023-12-14T02:25:23;100458.72;;;6.50;100.00
36748;BME280;22716;51.556;5.080;2023-12-14T02:27:52;100459.59;;;6.44;100.00
36748;BME280;22716;51.556;5.080;2023-12-14T02:30:20;100458.72;;;6.44;100.00
36748;BME280;22716;51.556;5.080;2023-12-14T02:32:49;100455.25;;;6.33;100.00
36748;BME280;22716;51.556;5.080;2023-12-14T02:35:17;100471.72;;;6.32;100.00
36748;BME280;22716;51.556;5.080;2023-12-14T02:37:46;100480.41;;;6.32;100.00
36748;BME280;22716;51.556;5.080;2023-12-14T02:40:17;100477.78;;;6.32;100.00
36748;BME280;22716;51.556;5.080;2023-12-14T02:42:46;100485.59;;;6.32;100.00
36748;BME280;22716;51.556;5.080;2023-12-14T02:45:14;100479.53;;;6.29;100.00
36748;BME280;22716;51.556;5.080;2023-12-14T02:47:43;100493.41;;;6.29;100.00
36748;BME280;22716;51.556;5.080;2023-12-14T02:50:13;100505.56;;;6.27;100.00
36748;BME280;22716;51.556;5.080;2023-12-14T02:52:41;100506.41;;;6.23;100.00
36748;BME280;22716;51.556;5.080;2023-12-14T02:55:10;100511.63;;;6.29;100.00
36748;BME280;22716;51.556;5.080;2023-12-14T02:57:41;100515.97;;;6.33;100.00
36748;BME280;22716;51.556;5.080;2023-12-14T03:00:12;100511.63;;;6.34;100.00
36748;BME280;22716;51.556;5.080;2023-12-14T03:02:41;100515.94;;;6.32;100.00
36748;BME280;22716;51.556;5.080;2023-12-14T03:05:09;100522.03;;;6.28;100.00
36748;BME280;22716;51.556;5.080;2023-12-14T03:07:38;100519.41;;;6.26;100.00
36748;BME280;22716;51.556;5.080;2023-12-14T03:10:08;100515.09;;;6.27;100.00
36748;BME280;22716;51.556;5.080;2023-12-14T03:12:37;100523.78;;;6.30;100.00
36748;BME280;22716;51.556;5.080;2023-12-14T03:15:09;100528.09;;;6.33;100.00
36748;BME280;22716;51.556;5.080;2023-12-14T03:17:37;100521.16;;;6.27;100.00
36748;BME280;22716;51.556;5.080;2023-12-14T03:20:07;100525.47;;;6.31;100.00
36748;BME280;22716;51.556;5.080;2023-12-14T03:22:36;100529.84;;;6.31;100.00
36748;BME280;22716;51.556;5.080;2023-12-14T03:25:06;100528.94;;;6.29;100.00
36748;BME280;22716;51.556;5.080;2023-12-14T03:27:36;100539.34;;;6.26;100.00
36748;BME280;22716;51.556;5.080;2023-12-14T03:30:08;100528.94;;;6.22;100.00
36748;BME280;22716;51.556;5.080;2023-12-14T03:32:37;100544.56;;;6.24;100.00
36748;BME280;22716;51.556;5.080;2023-12-14T03:35:06;100541.09;;;6.24;100.00
36748;BME280;22716;51.556;5.080;2023-12-14T03:37:34;100542.84;;;6.22;100.00
36748;BME280;22716;51.556;5.080;2023-12-14T03:40:05;100548.91;;;6.19;100.00
36748;BME280;22716;51.556;5.080;2023-12-14T03:42:35;100541.97;;;6.21;100.00
36748;BME280;22716;51.556;5.080;2023-12-14T03:45:05;100553.22;;;6.20;100.00
36748;BME280;22716;51.556;5.080;2023-12-14T03:47:36;100548.03;;;6.23;100.00
36748;BME280;22716;51.556;5.080;2023-12-14T03:50:07;100547.16;;;6.26;100.00
36748;BME280;22716;51.556;5.080;2023-12-14T03:52:35;100554.97;;;6.21;100.00
36748;BME280;22716;51.556;5.080;2023-12-14T03:55:05;100557.56;;;6.21;100.00
36748;BME280;22716;51.556;5.080;2023-12-14T03:57:34;100549.75;;;6.15;100.00
36748;BME280;22716;51.556;5.080;2023-12-14T04:00:04;100551.47;;;6.13;100.00
36748;BME280;22716;51.556;5.080;2023-12-14T04:02:37;100556.66;;;6.14;100.00
36748;BME280;22716;51.556;5.080;2023-12-14T04:05:06;100567.09;;;6.20;100.00
36748;BME280;22716;51.556;5.080;2023-12-14T04:07:35;100568.84;;;6.22;100.00
36748;BME280;22716;51.556;5.080;2023-12-14T04:10:07;100573.16;;;6.26;100.00
36748;BME280;22716;51.556;5.080;2023-12-14T04:12:37;100587.06;;;6.28;100.00
36748;BME280;22716;51.556;5.080;2023-12-14T04:15:07;100578.34;;;6.19;100.00
36748;BME280;22716;51.556;5.080;2023-12-14T04:17:39;100587.03;;;6.17;100.00
36748;BME280;22716;51.556;5.080;2023-12-14T04:20:09;100596.59;;;6.21;100.00
36748;BME280;22716;51.556;5.080;2023-12-14T04:22:37;100603.53;;;6.24;100.00
36748;BME280;22716;51.556;5.080;2023-12-14T04:25:06;100607.88;;;6.22;100.00
36748;BME280;22716;51.556;5.080;2023-12-14T04:27:35;100613.06;;;6.22;100.00
36748;BME280;22716;51.556;5.080;2023-12-14T04:30:05;100621.75;;;6.25;100.00
36748;BME280;22716;51.556;5.080;2023-12-14T04:32:38;100618.25;;;6.20;100.00
36748;BME280;22716;51.556;5.080;2023-12-14T04:35:08;100623.44;;;6.15;100.00
36748;BME280;22716;51.556;5.080;2023-12-14T04:37:36;100602.56;;;6.00;100.00
36748;BME280;22716;51.556;5.080;2023-12-14T04:40:06;100634.75;;;6.20;100.00
36748;BME280;22716;51.556;5.080;2023-12-14T04:42:36;100646.00;;;6.19;100.00
36748;BME280;22716;51.556;5.080;2023-12-14T04:45:06;100650.34;;;6.20;100.00
36748;BME280;22716;51.556;5.080;2023-12-14T04:47:35;100659.88;;;6.23;100.00
36748;BME280;22716;51.556;5.080;2023-12-14T04:50:06;100667.69;;;6.18;100.00
36748;BME280;22716;51.556;5.080;2023-12-14T04:52:35;100670.28;;;6.18;100.00
36748;BME280;22716;51.556;5.080;2023-12-14T04:55:05;100680.69;;;6.18;100.00
36748;BME280;22716;51.556;5.080;2023-12-14T04:57:34;100660.69;;;6.05;100.00
36748;BME280;22716;51.556;5.080;2023-12-14T05:00:03;100675.47;;;6.17;100.00
36748;BME280;22716;51.556;5.080;2023-12-14T05:02:33;100671.16;;;6.17;100.00
36748;BME280;22716;51.556;5.080;2023-12-14T05:05:01;100682.41;;;6.16;100.00
36748;BME280;22716;51.556;5.080;2023-12-14T05:07:33;100685.00;;;6.16;100.00
36748;BME280;22716;51.556;5.080;2023-12-14T05:10:02;100696.31;;;6.20;100.00
36748;BME280;22716;51.556;5.080;2023-12-14T05:12:30;100693.72;;;6.18;100.00
36748;BME280;22716;51.556;5.080;2023-12-14T05:14:59;100704.97;;;6.20;100.00
36748;BME280;22716;51.556;5.080;2023-12-14T05:17:28;100712.78;;;6.20;100.00
36748;BME280;22716;51.556;5.080;2023-12-14T05:19:56;100718.00;;;6.20;100.00
36748;BME280;22716;51.556;5.080;2023-12-14T05:22:25;100717.09;;;6.17;100.00
36748;BME280;22716;51.556;5.080;2023-12-14T05:24:56;100739.66;;;6.22;100.00
36748;BME280;22716;51.556;5.080;2023-12-14T05:27:24;100737.91;;;6.17;100.00
36748;BME280;22716;51.556;5.080;2023-12-14T05:29:53;100750.00;;;6.06;100.00
36748;BME280;22716;51.556;5.080;2023-12-14T05:32:21;100758.63;;;6.05;100.00
36748;BME280;22716;51.556;5.080;2023-12-14T05:34:50;100756.03;;;6.03;100.00
36748;BME280;22716;51.556;5.080;2023-12-14T05:37:18;100762.13;;;6.04;100.00
36748;BME280;22716;51.556;5.080;2023-12-14T05:39:47;100763.84;;;6.08;100.00
36748;BME280;22716;51.556;5.080;2023-12-14T05:42:19;100769.03;;;6.00;100.00
36748;BME280;22716;51.556;5.080;2023-12-14T05:44:47;100762.94;;;5.97;100.00
36748;BME280;22716;51.556;5.080;2023-12-14T05:47:16;100781.19;;;6.01;100.00
36748;BME280;22716;51.556;5.080;2023-12-14T05:49:44;100782.91;;;6.01;100.00
36748;BME280;22716;51.556;5.080;2023-12-14T05:52:14;100782.84;;;5.92;100.00
36748;BME280;22716;51.556;5.080;2023-12-14T05:54:42;100796.72;;;5.92;100.00
36748;BME280;22716;51.556;5.080;2023-12-14T05:57:11;100795.72;;;5.83;100.00
36748;BME280;22716;51.556;5.080;2023-12-14T05:59:43;100796.53;;;5.74;100.00
36748;BME280;22716;51.556;5.080;2023-12-14T06:02:11;100800.84;;;5.72;100.00
36748;BME280;22716;51.556;5.080;2023-12-14T06:04:40;100807.75;;;5.70;100.00
36748;BME280;22716;51.556;5.080;2023-12-14T06:07:09;100812.94;;;5.70;100.00
36748;BME280;22716;51.556;5.080;2023-12-14T06:09:39;100811.25;;;5.72;100.00
36748;BME280;22716;51.556;5.080;2023-12-14T06:12:07;100816.50;;;5.78;100.00
36748;BME280;22716;51.556;5.080;2023-12-14T06:14:36;100814.78;;;5.80;100.00
36748;BME280;22716;51.556;5.080;2023-12-14T06:17:07;100823.50;;;5.85;100.00
36748;BME280;22716;51.556;5.080;2023-12-14T06:19:36;100825.28;;;5.89;100.00
36748;BME280;22716;51.556;5.080;2023-12-14T06:22:04;100831.28;;;5.84;100.00
36748;BME280;22716;51.556;5.080;2023-12-14T06:24:33;100832.13;;;5.84;100.00
36748;BME280;22716;51.556;5.080;2023-12-14T06:27:01;100832.94;;;5.79;100.00
36748;BME280;22716;51.556;5.080;2023-12-14T06:29:30;100843.38;;;5.80;100.00
36748;BME280;22716;51.556;5.080;2023-12-14T06:31:59;100840.75;;;5.77;100.00
36748;BME280;22716;51.556;5.080;2023-12-14T06:34:30;100843.28;;;5.71;100.00
36748;BME280;22716;51.556;5.080;2023-12-14T06:36:59;100844.22;;;5.79;100.00
36748;BME280;22716;51.556;5.080;2023-12-14T06:39:28;100856.31;;;5.74;100.00
36748;BME280;22716;51.556;5.080;2023-12-14T06:41:57;100867.59;;;5.75;100.00
36748;BME280;22716;51.556;5.080;2023-12-14T06:44:26;100863.28;;;5.75;100.00
36748;BME280;22716;51.556;5.080;2023-12-14T06:46:56;100877.13;;;5.74;100.00
36748;BME280;22716;51.556;5.080;2023-12-14T06:49:25;100885.72;;;5.70;100.00
36748;BME280;22716;51.556;5.080;2023-12-14T06:51:56;100884.91;;;5.74;100.00
36748;BME280;22716;51.556;5.080;2023-12-14T06:54:24;100893.53;;;5.69;100.00
36748;BME280;22716;51.556;5.080;2023-12-14T06:56:53;100900.38;;;5.60;100.00
36748;BME280;22716;51.556;5.080;2023-12-14T06:59:21;100907.38;;;5.66;100.00
36748;BME280;22716;51.556;5.080;2023-12-14T07:01:50;100911.66;;;5.64;100.00
36748;BME280;22716;51.556;5.080;2023-12-14T07:04:19;100913.34;;;5.59;100.00
36748;BME280;22716;51.556;5.080;2023-12-14T07:06:50;100919.38;;;5.56;100.00
36748;BME280;22716;51.556;5.080;2023-12-14T07:09:22;100925.47;;;5.57;100.00
36748;BME280;22716;51.556;5.080;2023-12-14T07:11:51;100923.75;;;5.57;100.00
36748;BME280;22716;51.556;5.080;2023-12-14T07:14:20;100929.78;;;5.56;100.00
36748;BME280;22716;51.556;5.080;2023-12-14T07:16:48;100940.19;;;5.56;100.00
36748;BME280;22716;51.556;5.080;2023-12-14T07:19:17;100941.84;;;5.50;100.00
36748;BME280;22716;51.556;5.080;2023-12-14T07:21:45;100944.41;;;5.47;100.00
36748;BME280;22716;51.556;5.080;2023-12-14T07:24:14;100944.44;;;5.50;100.00
36748;BME280;22716;51.556;5.080;2023-12-14T07:26:45;100964.34;;;5.49;100.00
36748;BME280;22716;51.556;5.080;2023-12-14T07:29:15;100959.16;;;5.48;100.00
36748;BME280;22716;51.556;5.080;2023-12-14T07:31:43;100970.50;;;5.56;100.00
36748;BME280;22716;51.556;5.080;2023-12-14T07:34:12;100971.44;;;5.64;100.00
36748;BME280;22716;51.556;5.080;2023-12-14T07:36:40;100967.97;;;5.62;100.00
36748;BME280;22716;51.556;5.080;2023-12-14T07:39:09;100965.28;;;5.56;100.00
36748;BME280;22716;51.556;5.080;2023-12-14T07:41:38;100971.34;;;5.53;100.00
36748;BME280;22716;51.556;5.080;2023-12-14T07:44:09;100976.56;;;5.56;100.00
36748;BME280;22716;51.556;5.080;2023-12-14T07:46:37;100972.28;;;5.60;100.00
36748;BME280;22716;51.556;5.080;2023-12-14T07:49:08;100983.56;;;5.60;100.00
36748;BME280;22716;51.556;5.080;2023-12-14T07:51:37;100982.59;;;5.54;100.00
36748;BME280;22716;51.556;5.080;2023-12-14T07:54:05;100976.53;;;5.55;100.00
36748;BME280;22716;51.556;5.080;2023-12-14T07:56:34;100981.78;;;5.56;100.00
36748;BME280;22716;51.556;5.080;2023-12-14T07:59:02;100986.09;;;5.56;100.00
36748;BME280;22716;51.556;5.080;2023-12-14T08:01:36;100994.69;;;5.50;100.00
36748;BME280;22716;51.556;5.080;2023-12-14T08:04:04;101003.41;;;5.55;100.00
36748;BME280;22716;51.556;5.080;2023-12-14T08:06:33;101012.00;;;5.50;100.00
36748;BME280;22716;51.556;5.080;2023-12-14T08:09:04;101012.00;;;5.50;100.00
36748;BME280;22716;51.556;5.080;2023-12-14T08:11:33;101015.47;;;5.52;100.00
36748;BME280;22716;51.556;5.080;2023-12-14T08:14:01;101021.56;;;5.51;100.00
36748;BME280;22716;51.556;5.080;2023-12-14T08:16:30;101026.63;;;5.43;100.00
36748;BME280;22716;51.556;5.080;2023-12-14T08:19:01;101034.38;;;5.39;100.00
36748;BME280;22716;51.556;5.080;2023-12-14T08:21:29;101041.41;;;5.46;100.00
36748;BME280;22716;51.556;5.080;2023-12-14T08:23:58;101050.06;;;5.45;100.00
36748;BME280;22716;51.556;5.080;2023-12-14T08:26:28;101057.06;;;5.49;100.00
36748;BME280;22716;51.556;5.080;2023-12-14T08:28:56;101060.50;;;5.49;100.00
36748;BME280;22716;51.556;5.080;2023-12-14T08:31:25;101035.34;;;5.45;100.00
36748;BME280;22716;51.556;5.080;2023-12-14T08:33:53;101026.69;;;5.46;100.00
36748;BME280;22716;51.556;5.080;2023-12-14T08:36:24;101028.50;;;5.53;100.00
36748;BME280;22716;51.556;5.080;2023-12-14T08:38:53;101046.84;;;5.64;100.00
36748;BME280;22716;51.556;5.080;2023-12-14T08:41:21;101060.75;;;5.66;100.00
36748;BME280;22716;51.556;5.080;2023-12-14T08:43:50;101063.28;;;5.61;100.00
36748;BME280;22716;51.556;5.080;2023-12-14T08:46:19;101068.47;;;5.60;100.00
36748;BME280;22716;51.556;5.080;2023-12-14T08:48:48;101075.47;;;5.65;100.00
36748;BME280;22716;51.556;5.080;2023-12-14T08:51:17;101084.94;;;5.62;100.00
36748;BME280;22716;51.556;5.080;2023-12-14T08:53:49;101075.38;;;5.61;100.00
36748;BME280;22716;51.556;5.080;2023-12-14T08:56:17;101082.25;;;5.54;100.00
36748;BME280;22716;51.556;5.080;2023-12-14T08:58:46;101095.25;;;5.56;100.00
36748;BME280;22716;51.556;5.080;2023-12-14T09:01:19;101105.69;;;5.59;100.00
36748;BME280;22716;51.556;5.080;2023-12-14T09:03:48;101107.19;;;5.42;100.00
36748;BME280;22716;51.556;5.080;2023-12-14T09:06:17;101104.53;;;5.40;100.00
36748;BME280;22716;51.556;5.080;2023-12-14T09:08:49;101101.91;;;5.36;100.00
36748;BME280;22716;51.556;5.080;2023-12-14T09:11:17;101118.38;;;5.38;100.00
36748;BME280;22716;51.556;5.080;2023-12-14T09:13:46;101120.91;;;5.35;100.00
36748;BME280;22716;51.556;5.080;2023-12-14T09:16:16;101131.28;;;5.32;100.00
36748;BME280;22716;51.556;5.080;2023-12-14T09:18:44;101136.38;;;5.26;100.00
36748;BME280;22716;51.556;5.080;2023-12-14T09:21:13;101140.69;;;5.24;100.00
36748;BME280;22716;51.556;5.080;2023-12-14T09:23:41;101143.38;;;5.30;100.00
36748;BME280;22716;51.556;5.080;2023-12-14T09:26:14;101160.78;;;5.34;100.00
36748;BME280;22716;51.556;5.080;2023-12-14T09:28:43;101156.41;;;5.33;100.00
36748;BME280;22716;51.556;5.080;2023-12-14T09:31:11;101148.41;;;5.21;100.00
36748;BME280;22716;51.556;5.080;2023-12-14T09:33:41;101165.88;;;5.28;100.00
36748;BME280;22716;51.556;5.080;2023-12-14T09:36:10;101157.06;;;5.20;100.00
36748;BME280;22716;51.556;5.080;2023-12-14T09:38:38;101172.00;;;5.34;100.00
36748;BME280;22716;51.556;5.080;2023-12-14T09:41:07;101165.00;;;5.29;100.00
36748;BME280;22716;51.556;5.080;2023-12-14T09:43:38;101179.13;;;5.44;100.00
36748;BME280;22716;51.556;5.080;2023-12-14T09:46:07;101187.00;;;5.49;100.00
36748;BME280;22716;51.556;5.080;2023-12-14T09:48:37;101185.34;;;5.54;100.00
36748;BME280;22716;51.556;5.080;2023-12-14T09:51:06;101200.09;;;5.56;100.00
36748;BME280;22716;51.556;5.080;2023-12-14T09:53:35;101207.91;;;5.58;100.00
36748;BME280;22716;51.556;5.080;2023-12-14T09:56:05;101202.75;;;5.61;100.00
36748;BME280;22716;51.556;5.080;2023-12-14T09:58:34;101210.59;;;5.62;100.00
36748;BME280;22716;51.556;5.080;2023-12-14T10:01:21;101200.97;;;5.57;100.00
36748;BME280;22716;51.556;5.080;2023-12-14T10:03:50;101211.44;;;5.61;100.00
36748;BME280;22716;51.556;5.080;2023-12-14T10:06:19;101161.75;;;5.43;100.00
36748;BME280;22716;51.556;5.080;2023-12-14T10:08:54;101210.84;;;5.78;100.00
36748;BME280;22716;51.556;5.080;2023-12-14T10:11:23;101211.75;;;5.83;100.00
36748;BME280;22716;51.556;5.080;2023-12-14T10:13:52;101222.34;;;5.92;100.00
36748;BME280;22716;51.556;5.080;2023-12-14T10:16:31;101215.59;;;6.04;100.00
36748;BME280;22716;51.556;5.080;2023-12-14T10:19:00;101226.94;;;6.11;100.00
36748;BME280;22716;51.556;5.080;2023-12-14T10:21:29;101227.72;;;6.05;100.00
36748;BME280;22716;51.556;5.080;2023-12-14T10:23:58;101229.47;;;6.08;100.00
36748;BME280;22716;51.556;5.080;2023-12-14T10:26:26;101233.88;;;6.10;100.00
36748;BME280;22716;51.556;5.080;2023-12-14T10:28:55;101238.06;;;6.02;100.00
36748;BME280;22716;51.556;5.080;2023-12-14T10:31:24;101238.06;;;6.02;100.00
36748;BME280;22716;51.556;5.080;2023-12-14T10:33:55;101209.97;;;5.79;100.00
36748;BME280;22716;51.556;5.080;2023-12-14T10:36:25;101245.78;;;5.95;100.00
36748;BME280;22716;51.556;5.080;2023-12-14T10:38:57;101246.75;;;6.01;100.00
36748;BME280;22716;51.556;5.080;2023-12-14T10:41:27;101245.09;;;6.06;100.00
36748;BME280;22716;51.556;5.080;2023-12-14T10:43:56;101252.91;;;6.08;100.00
36748;BME280;22716;51.556;5.080;2023-12-14T10:46:25;101251.22;;;6.11;100.00
36748;BME280;22716;51.556;5.080;2023-12-14T10:48:56;101246.97;;;6.19;100.00
36748;BME280;22716;51.556;5.080;2023-12-14T10:51:26;101246.94;;;6.13;100.00
36748;BME280;22716;51.556;5.080;2023-12-14T10:53:56;101243.19;;;5.95;100.00
36748;BME280;22716;51.556;5.080;2023-12-14T10:56:24;101253.59;;;5.95;100.00
36748;BME280;22716;51.556;5.080;2023-12-14T10:58:55;101256.97;;;5.89;100.00
36748;BME280;22716;51.556;5.080;2023-12-14T11:01:26;101255.97;;;5.81;100.00
36748;BME280;22716;51.556;5.080;2023-12-14T11:03:59;101273.25;;;5.79;100.00
36748;BME280;22716;51.556;5.080;2023-12-14T11:06:31;101275.84;;;5.79;100.00
36748;BME280;22716;51.556;5.080;2023-12-14T11:09:01;101265.47;;;5.81;100.00
36748;BME280;22716;51.556;5.080;2023-12-14T11:11:40;101289.13;;;5.93;100.00
36748;BME280;22716;51.556;5.080;2023-12-14T11:14:11;101281.91;;;5.80;100.00
36748;BME280;22716;51.556;5.080;2023-12-14T11:16:44;101293.34;;;5.86;100.00
36748;BME280;22716;51.556;5.080;2023-12-14T11:19:29;101290.97;;;6.03;100.00
36748;BME280;22716;51.556;5.080;2023-12-14T11:22:13;101283.13;;;6.00;100.00
36748;BME280;22716;51.556;5.080;2023-12-14T11:24:50;101283.31;;;6.10;100.00
36748;BME280;22716;51.556;5.080;2023-12-14T11:27:25;101289.53;;;6.22;100.00
36748;BME280;22716;51.556;5.080;2023-12-14T11:29:54;101300.03;;;6.29;100.00
36748;BME280;22716;51.556;5.080;2023-12-14T11:32:25;101290.50;;;6.30;100.00
36748;BME280;22716;51.556;5.080;2023-12-14T11:34:57;101290.69;;;6.43;100.00
36748;BME280;22716;51.556;5.080;2023-12-14T11:37:26;101282.88;;;6.42;100.00
36748;BME280;22716;51.556;5.080;2023-12-14T11:39:55;101288.91;;;6.41;100.00
36748;BME280;22716;51.556;5.080;2023-12-14T11:42:23;101294.03;;;6.35;100.00
36748;BME280;22716;51.556;5.080;2023-12-14T11:44:57;101302.81;;;6.40;100.00
36748;BME280;22716;51.556;5.080;2023-12-14T11:47:25;101307.31;;;6.51;100.00
36748;BME280;22716;51.556;5.080;2023-12-14T11:49:57;101300.38;;;6.55;100.00
36748;BME280;22716;51.556;5.080;2023-12-14T11:52:25;101304.91;;;6.68;100.00
36748;BME280;22716;51.556;5.080;2023-12-14T11:54:55;101310.16;;;6.72;100.00
36748;BME280;22716;51.556;5.080;2023-12-14T11:57:28;101305.06;;;6.80;100.00
36748;BME280;22716;51.556;5.080;2023-12-14T11:59:58;101308.56;;;6.82;100.00
36748;BME280;22716;51.556;5.080;2023-12-14T12:02:28;101303.31;;;6.79;100.00
36748;BME280;22716;51.556;5.080;2023-12-14T12:05:00;101312.88;;;6.82;100.00
36748;BME280;22716;51.556;5.080;2023-12-14T12:07:28;101311.22;;;6.87;100.00
36748;BME280;22716;51.556;5.080;2023-12-14T12:09:58;101309.47;;;6.87;100.00
36748;BME280;22716;51.556;5.080;2023-12-14T12:12:26;101319.84;;;6.84;100.00
36748;BME280;22716;51.556;5.080;2023-12-14T12:14:55;101314.44;;;6.66;100.00
36748;BME280;22716;51.556;5.080;2023-12-14T12:17:23;101310.97;;;6.65;100.00
36748;BME280;22716;51.556;5.080;2023-12-14T12:19:52;101317.09;;;6.69;100.00
36748;BME280;22716;51.556;5.080;2023-12-14T12:22:23;101323.19;;;6.71;100.00
36748;BME280;22716;51.556;5.080;2023-12-14T12:24:52;101317.94;;;6.68;100.00
36748;BME280;22716;51.556;5.080;2023-12-14T12:27:20;101313.47;;;6.61;100.00
36748;BME280;22716;51.556;5.080;2023-12-14T12:29:49;101310.00;;;6.57;100.00
36748;BME280;22716;51.556;5.080;2023-12-14T12:32:20;101319.50;;;6.55;100.00
36748;BME280;22716;51.556;5.080;2023-12-14T12:34:48;101318.66;;;6.56;100.00
36748;BME280;22716;51.556;5.080;2023-12-14T12:37:18;101329.09;;;6.61;100.00
36748;BME280;22716;51.556;5.080;2023-12-14T12:39:51;101329.09;;;6.61;100.00
36748;BME280;22716;51.556;5.080;2023-12-14T12:42:19;101325.66;;;6.62;100.00
36748;BME280;22716;51.556;5.080;2023-12-14T12:44:48;101334.34;;;6.64;100.00
36748;BME280;22716;51.556;5.080;2023-12-14T12:47:16;101332.63;;;6.63;100.00
36748;BME280;22716;51.556;5.080;2023-12-14T12:49:45;101333.47;;;6.63;100.00
36748;BME280;22716;51.556;5.080;2023-12-14T12:52:13;101336.13;;;6.65;100.00
36748;BME280;22716;51.556;5.080;2023-12-14T12:54:42;101332.59;;;6.60;100.00
36748;BME280;22716;51.556;5.080;2023-12-14T12:57:14;101349.13;;;6.66;100.00
36748;BME280;22716;51.556;5.080;2023-12-14T12:59:43;101348.38;;;6.72;100.00
36748;BME280;22716;51.556;5.080;2023-12-14T13:02:12;101340.59;;;6.75;100.00